Main page
METAR-TAF:

METAR-TAF

Airports :

Avilés, Spain

Asturias Airport

latitude: 43-33N, longitude: 006-02W, elevation: 127 m

Current weather observation

The report was made 15 minutes ago, at 16:30 UTC
Wind 11 kt from the West/Northwest, varying between West and North/Northwest
Temperature 19°C
Humidity 73%
Pressure 1019 hPa
Visibility 10 km or more
Broken clouds at a height of 3400 ft

METAR: LEAS 221630Z 30011KT 270V340 9999 BKN034 19/14 Q1019 NOSIG

Time: 18:45 (16:45 UTC)

Forecast

The report was made 2 hours and 45 minutes ago, at 14:00 UTC
Forecast valid from 22 at 15 UTC to 23 at 15 UTC
Wind 10 kt from the West/Northwest
Visibility 10 km or more
Few clouds at a height of 1000 ft
Broken clouds at a height of 3000 ft
Becoming
from 22 at 20 UTC to 22 at 22 UTC
Wind 2 kt from variable directions
Becoming
from 23 at 10 UTC to 23 at 12 UTC
Wind 10 kt from the Northwest

TAF: LEAS 221400Z 2215/2315 30010KT 9999 FEW010 BKN030 TX21/2215Z TN15/2303Z BECMG 2220/2222 VRB02KT BECMG 2310/2312 32010KT

Weather observations and forecasts of more than 4000 airports (METAR and TAF reports).

The available stations are represented by yellow and red dots on the map.

Hover mouse over dot to see the name of the station.

Then click to see weather observations and forecasts.

To change the map : click on the green buttons with a black cross to zoom in, on the green button with a dash to zoom out, or on the green arrows for adjacent maps.


METAR-TAF: